sensor_id;sensor_type;location;lat;lon;timestamp;noise_LAeq;noise_LA_min;noise_LA_max;noise_LA01;noise_LA95
40465;Laerm;30489;48.982;8.394;2023-04-25T00:00:48;39.47;37.12;41.61;;
40465;Laerm;30489;48.982;8.394;2023-04-25T00:02:58;39.48;37.52;42.03;;
40465;Laerm;30489;48.982;8.394;2023-04-25T00:05:09;39.51;37.70;41.14;;
40465;Laerm;30489;48.982;8.394;2023-04-25T00:07:20;39.48;37.52;41.06;;
40465;Laerm;30489;48.982;8.394;2023-04-25T00:09:31;39.45;37.12;41.30;;
40465;Laerm;30489;48.982;8.394;2023-04-25T00:11:41;39.46;37.52;41.38;;
40465;Laerm;30489;48.982;8.394;2023-04-25T00:13:51;39.44;37.70;41.22;;
40465;Laerm;30489;48.982;8.394;2023-04-25T00:16:02;39.44;37.70;41.06;;
40465;Laerm;30489;48.982;8.394;2023-04-25T00:18:12;39.43;37.32;40.98;;
40465;Laerm;30489;48.982;8.394;2023-04-25T00:20:22;39.43;37.32;41.46;;
40465;Laerm;30489;48.982;8.394;2023-04-25T00:22:33;39.41;37.52;40.98;;
40465;Laerm;30489;48.982;8.394;2023-04-25T00:24:44;39.41;37.52;43.04;;
40465;Laerm;30489;48.982;8.394;2023-04-25T00:26:54;39.42;37.35;41.89;;
40465;Laerm;30489;48.982;8.394;2023-04-25T00:29:05;39.40;37.12;41.14;;
40465;Laerm;30489;48.982;8.394;2023-04-25T00:31:15;39.43;37.52;41.14;;
40465;Laerm;30489;48.982;8.394;2023-04-25T00:33:25;39.45;37.70;41.22;;
40465;Laerm;30489;48.982;8.394;2023-04-25T00:35:35;39.44;37.12;41.22;;
40465;Laerm;30489;48.982;8.394;2023-04-25T00:37:46;39.43;37.70;40.98;;
40465;Laerm;30489;48.982;8.394;2023-04-25T00:39:57;39.45;37.52;41.22;;
40465;Laerm;30489;48.982;8.394;2023-04-25T00:42:08;39.44;37.52;41.06;;
40465;Laerm;30489;48.982;8.394;2023-04-25T00:44:18;39.44;37.52;41.14;;
40465;Laerm;30489;48.982;8.394;2023-04-25T00:46:28;39.44;37.52;40.98;;
40465;Laerm;30489;48.982;8.394;2023-04-25T00:48:39;39.44;36.69;42.47;;
40465;Laerm;30489;48.982;8.394;2023-04-25T00:50:52;39.43;37.52;41.14;;
40465;Laerm;30489;48.982;8.394;2023-04-25T00:53:04;39.43;37.70;40.98;;
40465;Laerm;30489;48.982;8.394;2023-04-25T00:55:14;39.44;37.52;41.06;;
40465;Laerm;30489;48.982;8.394;2023-04-25T00:57:25;39.42;37.32;41.06;;
40465;Laerm;30489;48.982;8.394;2023-04-25T00:59:36;39.39;37.70;42.22;;
40465;Laerm;30489;48.982;8.394;2023-04-25T01:01:46;39.38;37.32;41.61;;
40465;Laerm;30489;48.982;8.394;2023-04-25T01:03:56;39.38;37.32;42.71;;
40465;Laerm;30489;48.982;8.394;2023-04-25T01:06:08;39.41;37.12;42.76;;
40465;Laerm;30489;48.982;8.394;2023-04-25T01:08:19;39.42;37.12;41.14;;
40465;Laerm;30489;48.982;8.394;2023-04-25T01:10:31;39.41;37.12;41.06;;
40465;Laerm;30489;48.982;8.394;2023-04-25T01:12:41;39.41;37.32;41.22;;
40465;Laerm;30489;48.982;8.394;2023-04-25T01:14:51;39.42;37.32;41.75;;
40465;Laerm;30489;48.982;8.394;2023-04-25T01:17:02;39.39;37.32;43.34;;
40465;Laerm;30489;48.982;8.394;2023-04-25T01:19:12;39.41;37.32;41.46;;
40465;Laerm;30489;48.982;8.394;2023-04-25T01:21:26;39.43;37.32;41.14;;
40465;Laerm;30489;48.982;8.394;2023-04-25T01:23:41;39.40;37.52;40.98;;
40465;Laerm;30489;48.982;8.394;2023-04-25T01:25:52;39.44;37.32;43.94;;
40465;Laerm;30489;48.982;8.394;2023-04-25T01:28:02;39.42;37.32;42.22;;
40465;Laerm;30489;48.982;8.394;2023-04-25T01:30:13;39.41;36.91;41.14;;
40465;Laerm;30489;48.982;8.394;2023-04-25T01:32:23;39.43;37.70;41.22;;
40465;Laerm;30489;48.982;8.394;2023-04-25T01:34:34;39.41;37.32;40.98;;
40465;Laerm;30489;48.982;8.394;2023-04-25T01:36:44;39.45;37.32;41.14;;
40465;Laerm;30489;48.982;8.394;2023-04-25T01:38:54;39.41;37.12;41.06;;
40465;Laerm;30489;48.982;8.394;2023-04-25T01:41:05;39.42;36.91;41.19;;
40465;Laerm;30489;48.982;8.394;2023-04-25T01:43:15;39.40;37.32;41.22;;
40465;Laerm;30489;48.982;8.394;2023-04-25T01:45:26;39.39;37.32;44.54;;
40465;Laerm;30489;48.982;8.394;2023-04-25T01:47:36;39.38;37.32;40.98;;
40465;Laerm;30489;48.982;8.394;2023-04-25T01:49:47;39.36;37.52;41.14;;
40465;Laerm;30489;48.982;8.394;2023-04-25T01:51:57;39.37;36.91;41.06;;
40465;Laerm;30489;48.982;8.394;2023-04-25T01:54:08;39.33;37.32;40.89;;
40465;Laerm;30489;48.982;8.394;2023-04-25T01:56:18;39.32;37.32;40.98;;
40465;Laerm;30489;48.982;8.394;2023-04-25T01:58:28;39.36;37.32;41.82;;
40465;Laerm;30489;48.982;8.394;2023-04-25T02:00:39;39.37;37.12;40.98;;
40465;Laerm;30489;48.982;8.394;2023-04-25T02:02:50;39.37;37.32;41.14;;
40465;Laerm;30489;48.982;8.394;2023-04-25T02:05:03;39.33;37.52;41.06;;
40465;Laerm;30489;48.982;8.394;2023-04-25T02:07:13;39.29;37.32;41.46;;
40465;Laerm;30489;48.982;8.394;2023-04-25T02:09:23;39.30;36.91;40.89;;
40465;Laerm;30489;48.982;8.394;2023-04-25T02:11:34;39.28;37.12;40.98;;
40465;Laerm;30489;48.982;8.394;2023-04-25T02:13:44;39.25;37.12;41.06;;
40465;Laerm;30489;48.982;8.394;2023-04-25T02:15:54;39.25;37.12;41.22;;
40465;Laerm;30489;48.982;8.394;2023-04-25T02:18:05;39.25;37.32;41.30;;
40465;Laerm;30489;48.982;8.394;2023-04-25T02:20:16;39.26;37.32;40.98;;
40465;Laerm;30489;48.982;8.394;2023-04-25T02:22:27;39.22;36.91;41.53;;
40465;Laerm;30489;48.982;8.394;2023-04-25T02:24:40;39.25;37.32;41.06;;
40465;Laerm;30489;48.982;8.394;2023-04-25T02:26:50;39.24;37.12;40.89;;
40465;Laerm;30489;48.982;8.394;2023-04-25T02:29:00;39.22;36.91;43.58;;
40465;Laerm;30489;48.982;8.394;2023-04-25T02:31:11;39.22;36.91;40.80;;
40465;Laerm;30489;48.982;8.394;2023-04-25T02:33:21;39.24;36.91;40.98;;
40465;Laerm;30489;48.982;8.394;2023-04-25T02:35:32;39.22;37.12;40.98;;
40465;Laerm;30489;48.982;8.394;2023-04-25T02:37:43;39.24;37.32;41.75;;
40465;Laerm;30489;48.982;8.394;2023-04-25T02:39:53;39.23;37.32;41.14;;
40465;Laerm;30489;48.982;8.394;2023-04-25T02:42:03;39.25;37.12;40.89;;
40465;Laerm;30489;48.982;8.394;2023-04-25T02:44:13;39.24;36.91;41.14;;
40465;Laerm;30489;48.982;8.394;2023-04-25T02:46:24;39.23;37.12;40.80;;
40465;Laerm;30489;48.982;8.394;2023-04-25T02:48:34;39.23;37.12;40.89;;
40465;Laerm;30489;48.982;8.394;2023-04-25T02:50:44;39.19;36.91;41.14;;
40465;Laerm;30489;48.982;8.394;2023-04-25T02:52:55;39.20;36.91;40.98;;
40465;Laerm;30489;48.982;8.394;2023-04-25T02:55:05;39.20;36.91;40.98;;
40465;Laerm;30489;48.982;8.394;2023-04-25T02:57:16;39.19;37.12;40.80;;
40465;Laerm;30489;48.982;8.394;2023-04-25T02:59:26;39.18;37.12;41.53;;
40465;Laerm;30489;48.982;8.394;2023-04-25T03:01:36;39.21;37.12;41.14;;
40465;Laerm;30489;48.982;8.394;2023-04-25T03:03:46;39.18;36.91;40.98;;
40465;Laerm;30489;48.982;8.394;2023-04-25T03:05:56;39.22;36.91;40.98;;
40465;Laerm;30489;48.982;8.394;2023-04-25T03:08:07;39.23;37.32;40.98;;
40465;Laerm;30489;48.982;8.394;2023-04-25T03:10:17;39.21;36.91;41.14;;
40465;Laerm;30489;48.982;8.394;2023-04-25T03:12:27;39.20;36.91;40.89;;
40465;Laerm;30489;48.982;8.394;2023-04-25T03:14:37;39.17;36.69;40.89;;
40465;Laerm;30489;48.982;8.394;2023-04-25T03:16:48;39.18;37.12;41.22;;
40465;Laerm;30489;48.982;8.394;2023-04-25T03:18:58;39.17;36.20;40.98;;
40465;Laerm;30489;48.982;8.394;2023-04-25T03:21:08;39.17;36.91;41.06;;
40465;Laerm;30489;48.982;8.394;2023-04-25T03:23:18;39.21;37.12;40.98;;
40465;Laerm;30489;48.982;8.394;2023-04-25T03:25:29;39.17;37.12;40.71;;
40465;Laerm;30489;48.982;8.394;2023-04-25T03:27:39;39.18;36.69;41.14;;
40465;Laerm;30489;48.982;8.394;2023-04-25T03:29:49;39.19;37.12;41.06;;
40465;Laerm;30489;48.982;8.394;2023-04-25T03:31:59;39.21;37.12;40.89;;
40465;Laerm;30489;48.982;8.394;2023-04-25T03:34:09;39.20;36.20;41.06;;
40465;Laerm;30489;48.982;8.394;2023-04-25T03:36:20;39.17;36.69;41.30;;
40465;Laerm;30489;48.982;8.394;2023-04-25T03:38:30;39.14;36.69;40.80;;
40465;Laerm;30489;48.982;8.394;2023-04-25T03:40:40;39.16;36.91;40.80;;
40465;Laerm;30489;48.982;8.394;2023-04-25T03:42:51;39.16;36.69;40.80;;
40465;Laerm;30489;48.982;8.394;2023-04-25T03:45:01;39.16;37.12;41.14;;
40465;Laerm;30489;48.982;8.394;2023-04-25T03:47:11;39.18;36.69;40.89;;
40465;Laerm;30489;48.982;8.394;2023-04-25T03:49:21;39.13;36.69;41.06;;
40465;Laerm;30489;48.982;8.394;2023-04-25T03:51:32;39.17;36.91;40.98;;
40465;Laerm;30489;48.982;8.394;2023-04-25T03:53:42;39.18;37.12;40.98;;
40465;Laerm;30489;48.982;8.394;2023-04-25T03:55:52;39.16;36.91;40.89;;
40465;Laerm;30489;48.982;8.394;2023-04-25T03:58:02;39.16;36.91;40.98;;
40465;Laerm;30489;48.982;8.394;2023-04-25T04:00:13;39.15;36.91;40.89;;
40465;Laerm;30489;48.982;8.394;2023-04-25T04:02:23;39.14;37.12;40.80;;
40465;Laerm;30489;48.982;8.394;2023-04-25T04:04:33;39.14;37.12;40.89;;
40465;Laerm;30489;48.982;8.394;2023-04-25T04:06:43;39.13;36.69;40.98;;
40465;Laerm;30489;48.982;8.394;2023-04-25T04:08:54;39.13;37.12;41.22;;
40465;Laerm;30489;48.982;8.394;2023-04-25T04:11:05;39.14;36.45;41.14;;
40465;Laerm;30489;48.982;8.394;2023-04-25T04:13:15;39.13;37.12;41.75;;
40465;Laerm;30489;48.982;8.394;2023-04-25T04:15:25;39.15;37.12;40.89;;
40465;Laerm;30489;48.982;8.394;2023-04-25T04:17:36;39.13;36.91;40.71;;
40465;Laerm;30489;48.982;8.394;2023-04-25T04:19:46;39.14;36.69;41.14;;
40465;Laerm;30489;48.982;8.394;2023-04-25T04:21:56;39.12;37.12;40.98;;
40465;Laerm;30489;48.982;8.394;2023-04-25T04:24:06;39.11;36.69;40.89;;
40465;Laerm;30489;48.982;8.394;2023-04-25T04:26:17;39.07;36.69;41.06;;
40465;Laerm;30489;48.982;8.394;2023-04-25T04:28:28;39.07;36.91;40.80;;
40465;Laerm;30489;48.982;8.394;2023-04-25T04:30:38;39.08;36.45;41.14;;
40465;Laerm;30489;48.982;8.394;2023-04-25T04:32:50;39.10;36.69;40.98;;
40465;Laerm;30489;48.982;8.394;2023-04-25T04:35:00;39.06;36.69;41.22;;
40465;Laerm;30489;48.982;8.394;2023-04-25T04:37:10;39.05;36.91;40.98;;
40465;Laerm;30489;48.982;8.394;2023-04-25T04:39:23;39.07;36.20;40.80;;
40465;Laerm;30489;48.982;8.394;2023-04-25T04:41:33;39.10;36.69;41.14;;
40465;Laerm;30489;48.982;8.394;2023-04-25T04:43:43;39.05;36.20;40.98;;
40465;Laerm;30489;48.982;8.394;2023-04-25T04:45:55;39.05;36.69;40.80;;
40465;Laerm;30489;48.982;8.394;2023-04-25T04:48:06;39.03;36.45;40.98;;
40465;Laerm;30489;48.982;8.394;2023-04-25T04:50:17;39.05;36.77;40.71;;
40465;Laerm;30489;48.982;8.394;2023-04-25T04:52:28;39.05;36.20;40.98;;
40465;Laerm;30489;48.982;8.394;2023-04-25T04:54:38;39.05;36.45;41.22;;
40465;Laerm;30489;48.982;8.394;2023-04-25T04:56:48;39.05;36.69;40.89;;
40465;Laerm;30489;48.982;8.394;2023-04-25T04:58:58;39.05;36.69;40.98;;
40465;Laerm;30489;48.982;8.394;2023-04-25T05:01:09;39.03;36.69;40.89;;
40465;Laerm;30489;48.982;8.394;2023-04-25T05:03:19;39.10;37.12;40.98;;
40465;Laerm;30489;48.982;8.394;2023-04-25T05:05:30;39.06;36.91;41.06;;
40465;Laerm;30489;48.982;8.394;2023-04-25T05:07:40;39.05;36.45;40.89;;
40465;Laerm;30489;48.982;8.394;2023-04-25T05:09:50;39.05;37.12;41.61;;
40465;Laerm;30489;48.982;8.394;2023-04-25T05:12:00;39.09;36.45;43.19;;
40465;Laerm;30489;48.982;8.394;2023-04-25T05:14:11;39.07;36.20;40.80;;
40465;Laerm;30489;48.982;8.394;2023-04-25T05:16:21;39.05;36.91;40.80;;
40465;Laerm;30489;48.982;8.394;2023-04-25T05:18:31;39.09;36.69;41.06;;
40465;Laerm;30489;48.982;8.394;2023-04-25T05:20:41;39.08;36.69;40.89;;
40465;Laerm;30489;48.982;8.394;2023-04-25T05:22:52;39.05;36.45;40.71;;
40465;Laerm;30489;48.982;8.394;2023-04-25T05:25:02;39.01;36.20;41.89;;
40465;Laerm;30489;48.982;8.394;2023-04-25T05:27:16;38.99;36.20;40.89;;
40465;Laerm;30489;48.982;8.394;2023-04-25T05:29:26;39.10;36.98;40.80;;
40465;Laerm;30489;48.982;8.394;2023-04-25T05:31:37;39.10;36.69;40.98;;
40465;Laerm;30489;48.982;8.394;2023-04-25T05:33:47;39.06;36.91;40.80;;
40465;Laerm;30489;48.982;8.394;2023-04-25T05:35:57;39.07;36.56;40.98;;
40465;Laerm;30489;48.982;8.394;2023-04-25T05:38:07;39.06;36.69;40.98;;
40465;Laerm;30489;48.982;8.394;2023-04-25T05:40:18;39.03;36.45;40.89;;
40465;Laerm;30489;48.982;8.394;2023-04-25T05:42:28;39.07;36.91;40.98;;
40465;Laerm;30489;48.982;8.394;2023-04-25T05:44:38;39.12;36.91;41.06;;
40465;Laerm;30489;48.982;8.394;2023-04-25T05:46:48;39.13;36.69;40.98;;
40465;Laerm;30489;48.982;8.394;2023-04-25T05:48:59;39.12;36.91;42.53;;
40465;Laerm;30489;48.982;8.394;2023-04-25T05:51:09;39.11;36.69;40.80;;
40465;Laerm;30489;48.982;8.394;2023-04-25T05:53:20;39.09;36.69;40.89;;
40465;Laerm;30489;48.982;8.394;2023-04-25T05:55:30;39.12;36.91;41.30;;
40465;Laerm;30489;48.982;8.394;2023-04-25T05:57:40;39.09;37.12;40.80;;
40465;Laerm;30489;48.982;8.394;2023-04-25T05:59:52;39.10;36.91;40.98;;
40465;Laerm;30489;48.982;8.394;2023-04-25T06:02:02;39.06;36.45;41.06;;
40465;Laerm;30489;48.982;8.394;2023-04-25T06:04:13;39.09;36.69;41.14;;
40465;Laerm;30489;48.982;8.394;2023-04-25T06:06:23;39.07;37.12;41.14;;
40465;Laerm;30489;48.982;8.394;2023-04-25T06:08:33;39.09;36.69;40.96;;
40465;Laerm;30489;48.982;8.394;2023-04-25T06:10:44;39.08;36.69;40.98;;
40465;Laerm;30489;48.982;8.394;2023-04-25T06:12:54;39.05;36.91;40.89;;
40465;Laerm;30489;48.982;8.394;2023-04-25T06:15:05;39.04;36.69;40.98;;
40465;Laerm;30489;48.982;8.394;2023-04-25T06:17:15;39.06;36.69;40.98;;
40465;Laerm;30489;48.982;8.394;2023-04-25T06:19:26;39.01;36.91;40.98;;
40465;Laerm;30489;48.982;8.394;2023-04-25T06:21:36;39.00;36.98;40.89;;
40465;Laerm;30489;48.982;8.394;2023-04-25T06:23:46;38.98;36.69;40.80;;
40465;Laerm;30489;48.982;8.394;2023-04-25T06:25:56;39.01;36.69;40.71;;
40465;Laerm;30489;48.982;8.394;2023-04-25T06:28:07;39.01;36.69;40.71;;
40465;Laerm;30489;48.982;8.394;2023-04-25T06:30:17;38.99;36.45;40.71;;
40465;Laerm;30489;48.982;8.394;2023-04-25T06:32:32;38.97;36.45;40.80;;
40465;Laerm;30489;48.982;8.394;2023-04-25T06:34:44;38.95;36.20;40.71;;
40465;Laerm;30489;48.982;8.394;2023-04-25T06:36:54;38.94;36.69;40.80;;
40465;Laerm;30489;48.982;8.394;2023-04-25T06:39:04;38.98;36.45;40.62;;
40465;Laerm;30489;48.982;8.394;2023-04-25T06:41:14;38.98;36.69;40.98;;
40465;Laerm;30489;48.982;8.394;2023-04-25T06:43:25;38.98;36.20;40.89;;
40465;Laerm;30489;48.982;8.394;2023-04-25T06:45:35;39.00;36.20;40.71;;
40465;Laerm;30489;48.982;8.394;2023-04-25T06:47:45;39.01;36.69;40.89;;
40465;Laerm;30489;48.982;8.394;2023-04-25T06:49:55;38.98;36.45;41.61;;
40465;Laerm;30489;48.982;8.394;2023-04-25T06:52:06;38.98;36.69;40.71;;
40465;Laerm;30489;48.982;8.394;2023-04-25T06:54:17;38.97;36.69;40.80;;
40465;Laerm;30489;48.982;8.394;2023-04-25T06:56:28;38.95;36.69;40.71;;
40465;Laerm;30489;48.982;8.394;2023-04-25T06:58:39;38.94;36.69;40.89;;
40465;Laerm;30489;48.982;8.394;2023-04-25T07:00:49;38.92;36.45;40.71;;
40465;Laerm;30489;48.982;8.394;2023-04-25T07:03:00;38.87;36.45;40.62;;
40465;Laerm;30489;48.982;8.394;2023-04-25T07:05:10;38.88;36.45;40.71;;
40465;Laerm;30489;48.982;8.394;2023-04-25T07:07:20;38.87;36.45;41.53;;
40465;Laerm;30489;48.982;8.394;2023-04-25T07:09:31;38.82;35.94;40.79;;
40465;Laerm;30489;48.982;8.394;2023-04-25T07:11:43;38.80;36.20;40.98;;
40465;Laerm;30489;48.982;8.394;2023-04-25T07:13:53;38.81;36.45;40.62;;
40465;Laerm;30489;48.982;8.394;2023-04-25T07:16:04;38.84;36.69;40.62;;
40465;Laerm;30489;48.982;8.394;2023-04-25T07:18:14;38.88;36.34;40.71;;
40465;Laerm;30489;48.982;8.394;2023-04-25T07:20:25;38.85;36.45;40.98;;
40465;Laerm;30489;48.982;8.394;2023-04-25T07:22:37;38.84;36.45;40.71;;
40465;Laerm;30489;48.982;8.394;2023-04-25T07:24:47;38.87;36.45;40.62;;
40465;Laerm;30489;48.982;8.394;2023-04-25T07:26:58;38.89;36.34;40.89;;
40465;Laerm;30489;48.982;8.394;2023-04-25T07:29:08;38.88;35.94;40.71;;
40465;Laerm;30489;48.982;8.394;2023-04-25T07:31:19;38.83;35.94;40.89;;
40465;Laerm;30489;48.982;8.394;2023-04-25T07:33:29;38.84;36.20;40.71;;
40465;Laerm;30489;48.982;8.394;2023-04-25T07:35:40;38.85;36.69;40.53;;
40465;Laerm;30489;48.982;8.394;2023-04-25T07:37:50;38.82;36.20;40.62;;
40465;Laerm;30489;48.982;8.394;2023-04-25T07:40:02;38.82;36.45;40.71;;
40465;Laerm;30489;48.982;8.394;2023-04-25T07:42:13;38.81;35.94;40.89;;
40465;Laerm;30489;48.982;8.394;2023-04-25T07:44:24;38.80;36.45;40.80;;
40465;Laerm;30489;48.982;8.394;2023-04-25T07:46:35;38.80;36.20;40.62;;
40465;Laerm;30489;48.982;8.394;2023-04-25T07:48:45;38.80;36.20;40.71;;
40465;Laerm;30489;48.982;8.394;2023-04-25T07:50:55;38.82;36.20;40.80;;
40465;Laerm;30489;48.982;8.394;2023-04-25T07:53:06;38.82;36.45;41.68;;
40465;Laerm;30489;48.982;8.394;2023-04-25T07:55:16;38.82;36.69;40.80;;
40465;Laerm;30489;48.982;8.394;2023-04-25T07:57:26;38.79;36.45;40.80;;
40465;Laerm;30489;48.982;8.394;2023-04-25T07:59:37;38.80;35.66;40.89;;
40465;Laerm;30489;48.982;8.394;2023-04-25T08:01:47;38.79;36.20;41.68;;
40465;Laerm;30489;48.982;8.394;2023-04-25T08:03:57;38.80;36.69;40.71;;
40465;Laerm;30489;48.982;8.394;2023-04-25T08:06:07;38.77;36.20;43.29;;
40465;Laerm;30489;48.982;8.394;2023-04-25T08:08:18;38.82;36.20;41.82;;
40465;Laerm;30489;48.982;8.394;2023-04-25T08:10:28;38.84;36.20;41.38;;
40465;Laerm;30489;48.982;8.394;2023-04-25T08:12:38;38.85;36.45;41.06;;
40465;Laerm;30489;48.982;8.394;2023-04-25T08:14:48;38.77;36.20;40.71;;
40465;Laerm;30489;48.982;8.394;2023-04-25T08:16:59;38.95;36.45;43.44;;
40465;Laerm;30489;48.982;8.394;2023-04-25T08:19:09;38.77;36.20;40.80;;
40465;Laerm;30489;48.982;8.394;2023-04-25T08:21:20;38.75;36.10;40.71;;
40465;Laerm;30489;48.982;8.394;2023-04-25T08:23:31;38.79;36.45;40.62;;
40465;Laerm;30489;48.982;8.394;2023-04-25T08:25:41;38.73;36.45;40.71;;
40465;Laerm;30489;48.982;8.394;2023-04-25T08:27:51;38.72;36.20;40.80;;
40465;Laerm;30489;48.982;8.394;2023-04-25T08:30:02;38.78;35.94;40.89;;
40465;Laerm;30489;48.982;8.394;2023-04-25T08:32:13;38.77;36.20;40.62;;
40465;Laerm;30489;48.982;8.394;2023-04-25T08:34:24;38.81;36.20;40.89;;
40465;Laerm;30489;48.982;8.394;2023-04-25T08:36:35;38.83;35.94;41.06;;
40465;Laerm;30489;48.982;8.394;2023-04-25T08:38:45;38.84;36.20;41.06;;
40465;Laerm;30489;48.982;8.394;2023-04-25T08:40:55;38.80;35.94;40.53;;
40465;Laerm;30489;48.982;8.394;2023-04-25T08:43:06;38.82;36.20;42.29;;
40465;Laerm;30489;48.982;8.394;2023-04-25T08:45:21;38.84;36.20;40.71;;
40465;Laerm;30489;48.982;8.394;2023-04-25T08:47:31;38.80;36.20;40.71;;
40465;Laerm;30489;48.982;8.394;2023-04-25T08:49:45;38.79;36.20;40.71;;
40465;Laerm;30489;48.982;8.394;2023-04-25T08:51:56;38.77;36.20;40.80;;
40465;Laerm;30489;48.982;8.394;2023-04-25T08:54:09;38.77;35.94;40.89;;
40465;Laerm;30489;48.982;8.394;2023-04-25T08:56:20;38.77;35.94;40.98;;
40465;Laerm;30489;48.982;8.394;2023-04-25T08:58:32;38.75;36.20;42.35;;
40465;Laerm;30489;48.982;8.394;2023-04-25T09:00:42;38.74;36.45;40.80;;
40465;Laerm;30489;48.982;8.394;2023-04-25T09:02:52;38.75;35.94;40.98;;
40465;Laerm;30489;48.982;8.394;2023-04-25T09:05:03;38.76;36.20;40.53;;
40465;Laerm;30489;48.982;8.394;2023-04-25T09:07:14;38.74;36.20;40.98;;
40465;Laerm;30489;48.982;8.394;2023-04-25T09:09:29;38.76;36.20;40.53;;
40465;Laerm;30489;48.982;8.394;2023-04-25T09:11:39;38.74;35.94;40.62;;
40465;Laerm;30489;48.982;8.394;2023-04-25T09:13:50;38.79;36.45;40.62;;
40465;Laerm;30489;48.982;8.394;2023-04-25T09:16:19;38.74;35.94;40.63;;
40465;Laerm;30489;48.982;8.394;2023-04-25T09:18:32;38.71;36.34;40.71;;
40465;Laerm;30489;48.982;8.394;2023-04-25T09:20:43;38.73;35.94;40.53;;
40465;Laerm;30489;48.982;8.394;2023-04-25T09:23:03;38.73;36.20;40.80;;
40465;Laerm;30489;48.982;8.394;2023-04-25T09:25:13;38.69;36.20;40.71;;
40465;Laerm;30489;48.982;8.394;2023-04-25T09:27:24;38.70;35.94;41.30;;
40465;Laerm;30489;48.982;8.394;2023-04-25T09:29:37;38.68;35.36;41.61;;
40465;Laerm;30489;48.982;8.394;2023-04-25T09:31:47;38.66;35.94;40.62;;
40465;Laerm;30489;48.982;8.394;2023-04-25T09:34:01;38.66;36.20;40.80;;
40465;Laerm;30489;48.982;8.394;2023-04-25T09:36:11;38.65;35.94;40.71;;
40465;Laerm;30489;48.982;8.394;2023-04-25T09:38:21;38.64;35.94;40.62;;
40465;Laerm;30489;48.982;8.394;2023-04-25T09:40:32;38.66;36.45;40.62;;
40465;Laerm;30489;48.982;8.394;2023-04-25T09:42:42;38.69;36.34;40.62;;
40465;Laerm;30489;48.982;8.394;2023-04-25T09:44:53;38.74;35.66;42.71;;
40465;Laerm;30489;48.982;8.394;2023-04-25T09:47:03;38.74;36.20;41.82;;
40465;Laerm;30489;48.982;8.394;2023-04-25T09:49:14;38.75;35.66;40.62;;
40465;Laerm;30489;48.982;8.394;2023-04-25T09:51:25;38.66;35.94;40.62;;
40465;Laerm;30489;48.982;8.394;2023-04-25T09:53:36;38.69;35.94;40.62;;
40465;Laerm;30489;48.982;8.394;2023-04-25T09:55:47;38.78;36.20;40.80;;
40465;Laerm;30489;48.982;8.394;2023-04-25T09:57:57;38.79;36.45;40.62;;
40465;Laerm;30489;48.982;8.394;2023-04-25T10:00:11;38.81;36.20;40.71;;
40465;Laerm;30489;48.982;8.394;2023-04-25T10:02:23;38.79;35.94;40.98;;
40465;Laerm;30489;48.982;8.394;2023-04-25T10:04:34;38.78;35.66;40.53;;
40465;Laerm;30489;48.982;8.394;2023-04-25T10:06:44;38.78;36.20;40.71;;
40465;Laerm;30489;48.982;8.394;2023-04-25T10:08:56;38.74;36.20;40.71;;
40465;Laerm;30489;48.982;8.394;2023-04-25T10:11:07;38.74;35.94;40.89;;
40465;Laerm;30489;48.982;8.394;2023-04-25T10:13:18;38.72;36.10;40.71;;
40465;Laerm;30489;48.982;8.394;2023-04-25T10:15:28;38.68;36.20;41.46;;
40465;Laerm;30489;48.982;8.394;2023-04-25T10:17:39;38.64;35.66;40.62;;
40465;Laerm;30489;48.982;8.394;2023-04-25T10:19:50;38.66;36.20;40.53;;
40465;Laerm;30489;48.982;8.394;2023-04-25T10:24:14;38.71;35.94;40.53;;
40465;Laerm;30489;48.982;8.394;2023-04-25T10:26:25;38.67;35.94;40.89;;
40465;Laerm;30489;48.982;8.394;2023-04-25T10:31:07;38.72;35.66;40.71;;
40465;Laerm;30489;48.982;8.394;2023-04-25T10:33:17;38.75;36.20;40.71;;
40465;Laerm;30489;48.982;8.394;2023-04-25T10:35:29;38.68;35.66;40.62;;
40465;Laerm;30489;48.982;8.394;2023-04-25T10:38:00;38.69;35.86;40.89;;
40465;Laerm;30489;48.982;8.394;2023-04-25T10:40:10;38.67;35.94;40.98;;
40465;Laerm;30489;48.982;8.394;2023-04-25T10:42:21;38.69;36.20;40.98;;
40465;Laerm;30489;48.982;8.394;2023-04-25T10:44:31;38.72;36.20;41.22;;
40465;Laerm;30489;48.982;8.394;2023-04-25T10:46:42;38.89;35.94;45.57;;
40465;Laerm;30489;48.982;8.394;2023-04-25T10:48:54;38.79;36.10;40.71;;
40465;Laerm;30489;48.982;8.394;2023-04-25T10:51:11;38.75;36.10;40.89;;
40465;Laerm;30489;48.982;8.394;2023-04-25T10:53:22;38.69;35.94;40.71;;
40465;Laerm;30489;48.982;8.394;2023-04-25T10:55:52;38.71;35.94;40.80;;
40465;Laerm;30489;48.982;8.394;2023-04-25T10:58:03;38.72;35.66;40.71;;
40465;Laerm;30489;48.982;8.394;2023-04-25T11:00:14;38.72;36.20;40.71;;
40465;Laerm;30489;48.982;8.394;2023-04-25T11:02:28;38.72;36.20;41.14;;
40465;Laerm;30489;48.982;8.394;2023-04-25T11:04:39;38.72;35.66;40.62;;
40465;Laerm;30489;48.982;8.394;2023-04-25T11:09:16;38.72;35.94;41.06;;
40465;Laerm;30489;48.982;8.394;2023-04-25T11:11:26;38.71;35.94;41.06;;
40465;Laerm;30489;48.982;8.394;2023-04-25T11:13:38;38.71;36.20;40.80;;
40465;Laerm;30489;48.982;8.394;2023-04-25T11:15:52;38.71;36.45;40.89;;
40465;Laerm;30489;48.982;8.394;2023-04-25T11:18:02;38.73;35.66;40.62;;
40465;Laerm;30489;48.982;8.394;2023-04-25T11:20:13;38.74;35.66;43.04;;
40465;Laerm;30489;48.982;8.394;2023-04-25T11:22:24;38.73;35.66;42.09;;
40465;Laerm;30489;48.982;8.394;2023-04-25T11:24:36;38.71;35.94;42.03;;
40465;Laerm;30489;48.982;8.394;2023-04-25T11:26:46;38.73;36.45;40.62;;
40465;Laerm;30489;48.982;8.394;2023-04-25T11:28:58;38.74;36.20;40.80;;
40465;Laerm;30489;48.982;8.394;2023-04-25T11:31:09;38.74;35.66;40.71;;
40465;Laerm;30489;48.982;8.394;2023-04-25T11:33:23;38.76;35.94;45.33;;
40465;Laerm;30489;48.982;8.394;2023-04-25T11:35:34;38.75;36.20;40.80;;
40465;Laerm;30489;48.982;8.394;2023-04-25T11:37:45;38.72;35.94;40.62;;
40465;Laerm;30489;48.982;8.394;2023-04-25T11:39:55;38.71;36.45;40.62;;
40465;Laerm;30489;48.982;8.394;2023-04-25T11:42:06;38.71;35.94;40.98;;
40465;Laerm;30489;48.982;8.394;2023-04-25T11:44:17;38.68;36.20;40.80;;
40465;Laerm;30489;48.982;8.394;2023-04-25T11:46:27;38.67;36.20;40.71;;
40465;Laerm;30489;48.982;8.394;2023-04-25T11:48:40;38.72;36.20;44.73;;
40465;Laerm;30489;48.982;8.394;2023-04-25T11:50:51;38.70;35.94;40.62;;
40465;Laerm;30489;48.982;8.394;2023-04-25T11:53:01;38.73;35.94;40.89;;
40465;Laerm;30489;48.982;8.394;2023-04-25T11:55:18;38.74;36.20;41.06;;
40465;Laerm;30489;48.982;8.394;2023-04-25T11:57:30;38.70;35.94;40.53;;
40465;Laerm;30489;48.982;8.394;2023-04-25T11:59:41;38.66;35.66;40.71;;
40465;Laerm;30489;48.982;8.394;2023-04-25T12:01:51;38.67;36.20;40.79;;
40465;Laerm;30489;48.982;8.394;2023-04-25T12:04:15;38.69;35.66;40.63;;
40465;Laerm;30489;48.982;8.394;2023-04-25T12:06:26;38.68;35.86;40.98;;
40465;Laerm;30489;48.982;8.394;2023-04-25T12:08:37;38.71;35.94;40.71;;
40465;Laerm;30489;48.982;8.394;2023-04-25T12:10:47;38.70;35.94;40.89;;
40465;Laerm;30489;48.982;8.394;2023-04-25T12:12:58;38.68;36.20;40.43;;
40465;Laerm;30489;48.982;8.394;2023-04-25T12:17:22;38.83;36.45;41.22;;
40465;Laerm;30489;48.982;8.394;2023-04-25T12:19:36;38.72;36.20;40.62;;
40465;Laerm;30489;48.982;8.394;2023-04-25T12:21:47;38.72;35.66;40.71;;